Time;durP1;ratioP1;P1;durP2;ratioP2;P2;SDS_P1;SDS_P2;PMS_P1;PMS_P2;Temp;Humidity;BMP_temperature;BMP_pressure;BME280_temperature;BME280_humidity;BME280_pressure;Samples;Min_cycle;Max_cycle;Signal;HPM_P1;HPM_P2
2021/09/08 00:01:05;;;;;;;14.03;11.07;;;13.30;99.90;;;;;;4964945;28;20201;-77
2021/09/08 00:03:32;;;;;;;12.33;11.00;;;13.20;99.90;;;;;;4965740;28;20224;-78
2021/09/08 00:05:58;;;;;;;13.63;11.50;;;13.20;99.90;;;;;;4975705;28;20633;-76
2021/09/08 00:08:26;;;;;;;13.27;11.03;;;13.20;99.90;;;;;;4976753;28;20205;-76
2021/09/08 00:10:53;;;;;;;17.33;15.67;;;13.20;99.90;;;;;;4975619;28;20594;-77
2021/09/08 00:13:21;;;;;;;17.90;16.20;;;13.20;99.90;;;;;;4976897;28;20224;-77
2021/09/08 00:15:48;;;;;;;17.07;15.50;;;13.10;99.90;;;;;;4975348;28;20235;-77
2021/09/08 00:18:16;;;;;;;18.07;16.40;;;13.10;99.90;;;;;;4975205;28;20259;-77
2021/09/08 00:20:43;;;;;;;18.13;16.37;;;13.10;99.90;;;;;;4976722;28;20196;-77
2021/09/08 00:23:10;;;;;;;17.47;15.77;;;13.10;99.90;;;;;;4976435;28;20228;-76
2021/09/08 00:25:37;;;;;;;18.47;16.80;;;13.10;99.90;;;;;;4975351;28;20534;-78
2021/09/08 00:28:04;;;;;;;18.13;16.23;;;13.00;99.90;;;;;;4974820;28;20233;-77
2021/09/08 00:30:31;;;;;;;19.30;17.57;;;13.00;99.90;;;;;;4976431;28;20673;-77
2021/09/08 00:32:57;;;;;;;18.03;16.33;;;13.00;99.90;;;;;;4976306;28;20647;-76
2021/09/08 00:35:26;;;;;;;18.03;16.33;;;13.00;99.90;;;;;;4976470;28;20814;-78
2021/09/08 00:37:54;;;;;;;17.87;16.07;;;12.90;99.90;;;;;;4976443;28;20222;-76
2021/09/08 00:40:23;;;;;;;18.30;16.20;;;12.90;99.90;;;;;;4976172;28;20203;-77
2021/09/08 00:42:51;;;;;;;16.73;15.13;;;12.90;99.90;;;;;;4976222;28;20201;-77
2021/09/08 00:45:19;;;;;;;17.90;16.03;;;12.80;99.90;;;;;;4975054;28;20192;-77
2021/09/08 00:47:48;;;;;;;17.53;15.83;;;12.80;99.90;;;;;;4976021;28;20300;-77
2021/09/08 00:50:14;;;;;;;17.97;16.23;;;12.80;99.90;;;;;;4976440;28;20676;-76
2021/09/08 00:52:44;;;;;;;17.17;15.57;;;12.80;99.90;;;;;;4976446;28;20226;-77
2021/09/08 00:55:12;;;;;;;18.17;16.37;;;12.70;99.90;;;;;;4976142;28;20223;-76
2021/09/08 00:57:41;;;;;;;17.53;15.87;;;12.70;99.90;;;;;;4975909;28;20669;-77
2021/09/08 01:00:09;;;;;;;18.33;16.47;;;12.70;99.90;;;;;;4974565;28;20673;-77
2021/09/08 01:02:39;;;;;;;17.73;16.03;;;12.60;99.90;;;;;;4976597;28;20247;-79
2021/09/08 01:05:08;;;;;;;17.80;16.07;;;12.60;99.90;;;;;;4975833;28;20216;-77
2021/09/08 01:07:36;;;;;;;17.50;15.90;;;12.60;99.90;;;;;;4975834;28;20557;-76
2021/09/08 01:10:06;;;;;;;16.60;14.87;;;12.60;99.90;;;;;;4974624;28;20674;-78
2021/09/08 01:12:33;;;;;;;17.40;15.80;;;12.60;99.90;;;;;;4974489;28;20262;-77
2021/09/08 01:15:01;;;;;;;16.97;15.27;;;12.60;99.90;;;;;;4975819;28;20250;-77
2021/09/08 01:17:27;;;;;;;16.87;15.17;;;12.50;99.90;;;;;;4975605;28;20204;-80
2021/09/08 01:19:54;;;;;;;15.70;14.00;;;12.50;99.90;;;;;;4976830;28;20254;-79
2021/09/08 01:22:27;;;;;;;16.67;15.07;;;12.50;99.90;;;;;;4979208;28;20664;-78
2021/09/08 01:24:55;;;;;;;17.30;15.57;;;12.40;99.90;;;;;;4976146;28;20219;-77
2021/09/08 01:27:22;;;;;;;17.10;15.40;;;12.40;99.90;;;;;;4974250;28;20282;-77
2021/09/08 01:29:49;;;;;;;17.17;15.37;;;12.40;99.90;;;;;;4977066;28;20666;-78
2021/09/08 01:32:15;;;;;;;17.00;15.40;;;12.40;99.90;;;;;;4977067;28;20271;-78
2021/09/08 01:34:42;;;;;;;15.97;14.43;;;12.30;99.90;;;;;;4975842;28;20228;-76
2021/09/08 01:37:10;;;;;;;16.67;14.97;;;12.30;99.90;;;;;;4978254;28;20206;-78
2021/09/08 01:39:37;;;;;;;16.13;14.43;;;12.30;99.90;;;;;;4975257;28;20262;-76
2021/09/08 01:42:05;;;;;;;16.00;14.40;;;12.30;99.90;;;;;;4975777;28;20543;-77
2021/09/08 01:44:32;;;;;;;17.27;15.10;;;12.30;99.90;;;;;;4973669;28;20254;-76
2021/09/08 01:46:59;;;;;;;16.50;15.00;;;12.30;99.90;;;;;;4974137;28;20728;-78
2021/09/08 01:49:26;;;;;;;17.17;15.47;;;12.20;99.90;;;;;;4974386;28;20261;-78
2021/09/08 01:51:52;;;;;;;16.13;14.43;;;12.20;99.90;;;;;;4976031;28;20257;-77
2021/09/08 01:54:20;;;;;;;14.97;13.50;;;12.10;99.90;;;;;;4974609;28;20242;-77
2021/09/08 01:56:47;;;;;;;15.30;13.67;;;12.10;99.90;;;;;;4976041;28;20194;-78
2021/09/08 01:59:15;;;;;;;15.93;14.33;;;12.10;99.90;;;;;;4979241;28;20195;-78
2021/09/08 02:01:42;;;;;;;17.77;15.00;;;12.10;99.90;;;;;;4978370;28;20209;-78
2021/09/08 02:04:09;;;;;;;15.30;13.70;;;12.10;99.90;;;;;;4979047;28;20256;-78
2021/09/08 02:06:47;;;;;;;15.63;14.10;;;12.10;99.90;;;;;;4977735;28;20212;-79
2021/09/08 02:09:13;;;;;;;15.23;13.70;;;12.10;99.90;;;;;;4977833;28;20939;-79
2021/09/08 02:11:40;;;;;;;15.10;13.60;;;12.00;99.90;;;;;;4977517;28;20207;-79
2021/09/08 02:14:08;;;;;;;16.13;14.57;;;12.00;99.90;;;;;;4978883;28;20214;-78
2021/09/08 02:16:36;;;;;;;17.37;14.30;;;12.00;99.90;;;;;;4977219;28;20257;-79
2021/09/08 02:19:03;;;;;;;15.93;14.33;;;12.00;99.90;;;;;;4977740;28;20206;-79
2021/09/08 02:21:31;;;;;;;17.53;15.73;;;11.90;99.90;;;;;;4977887;28;20233;-77
2021/09/08 02:23:57;;;;;;;16.53;14.93;;;11.90;99.90;;;;;;4978493;28;20222;-78
2021/09/08 02:26:24;;;;;;;16.93;15.13;;;11.90;99.90;;;;;;4977034;28;20231;-78
2021/09/08 02:28:51;;;;;;;15.77;14.17;;;11.90;99.90;;;;;;4969925;28;20404;-78
2021/09/08 02:31:18;;;;;;;16.33;14.63;;;11.90;99.90;;;;;;4978091;28;20201;-79
2021/09/08 02:33:46;;;;;;;15.80;14.23;;;11.90;99.90;;;;;;4976929;28;20228;-80
2021/09/08 02:36:13;;;;;;;16.50;14.90;;;11.80;99.90;;;;;;4975432;28;20637;-79
2021/09/08 02:38:40;;;;;;;16.17;14.57;;;11.80;99.90;;;;;;4974435;28;20199;-79
2021/09/08 02:41:08;;;;;;;16.90;15.03;;;11.80;99.90;;;;;;4975210;28;20205;-79
2021/09/08 02:43:35;;;;;;;19.53;15.00;;;11.80;99.90;;;;;;4974776;28;20256;-79
2021/09/08 02:46:03;;;;;;;17.67;15.77;;;11.80;99.90;;;;;;4974578;28;20207;-78
2021/09/08 02:48:30;;;;;;;15.60;13.80;;;11.70;99.90;;;;;;4974896;28;20613;-76
2021/09/08 02:51:00;;;;;;;16.77;13.87;;;11.70;99.90;;;;;;4975934;28;20203;-77
2021/09/08 02:53:27;;;;;;;15.13;13.50;;;11.70;99.90;;;;;;4976929;28;20235;-77
2021/09/08 02:55:54;;;;;;;14.97;13.40;;;11.60;99.90;;;;;;4977334;28;20207;-76
2021/09/08 02:58:21;;;;;;;14.60;13.07;;;11.70;99.90;;;;;;4976304;28;20237;-76
2021/09/08 03:00:48;;;;;;;15.37;13.23;;;11.70;99.90;;;;;;4976530;28;20206;-73
2021/09/08 03:03:15;;;;;;;15.77;13.90;;;11.60;99.90;;;;;;4974999;28;20766;-77
2021/09/08 03:05:42;;;;;;;16.57;14.97;;;11.60;99.90;;;;;;4976952;28;20198;-76
2021/09/08 03:08:10;;;;;;;17.30;15.50;;;11.60;99.90;;;;;;4973725;28;20694;-77
2021/09/08 03:10:37;;;;;;;18.03;16.23;;;11.50;99.90;;;;;;4975569;28;20254;-77
2021/09/08 03:13:05;;;;;;;17.77;16.00;;;11.50;99.90;;;;;;4975205;28;20202;-77
2021/09/08 03:15:32;;;;;;;18.53;16.67;;;11.50;99.90;;;;;;4973904;28;20198;-76
2021/09/08 03:17:59;;;;;;;17.87;16.00;;;11.40;99.90;;;;;;4970300;28;20578;-76
2021/09/08 03:20:26;;;;;;;17.97;16.20;;;11.40;99.90;;;;;;4975371;28;20190;-77
2021/09/08 03:22:53;;;;;;;18.00;15.83;;;11.40;99.90;;;;;;4975428;28;20202;-76
2021/09/08 03:25:21;;;;;;;16.87;15.27;;;11.40;99.90;;;;;;4975110;28;20209;-76
2021/09/08 03:27:48;;;;;;;17.00;15.20;;;11.40;99.90;;;;;;4974749;28;20221;-76
2021/09/08 03:30:14;;;;;;;18.30;16.57;;;11.30;99.90;;;;;;4976296;28;20202;-76
2021/09/08 03:32:41;;;;;;;18.20;16.40;;;11.30;99.90;;;;;;4974649;28;20210;-80
2021/09/08 03:35:09;;;;;;;19.97;17.97;;;11.20;99.90;;;;;;4974528;28;20228;-80
2021/09/08 03:37:36;;;;;;;19.03;17.33;;;11.20;99.90;;;;;;4971542;28;20659;-80
2021/09/08 03:40:03;;;;;;;19.63;17.30;;;11.30;99.90;;;;;;4975155;28;20203;-79
2021/09/08 03:42:31;;;;;;;18.93;17.17;;;11.20;99.90;;;;;;4975437;28;20256;-79
2021/09/08 03:44:58;;;;;;;21.03;19.03;;;11.20;99.90;;;;;;4973445;28;20569;-75
2021/09/08 03:47:25;;;;;;;19.30;17.50;;;11.20;99.90;;;;;;4974830;28;20241;-79
2021/09/08 03:49:52;;;;;;;20.30;18.30;;;11.20;99.90;;;;;;4973706;28;20268;-79
2021/09/08 03:52:19;;;;;;;19.80;17.87;;;11.20;99.90;;;;;;4976719;28;20305;-79
2021/09/08 03:54:46;;;;;;;20.00;17.67;;;11.10;99.90;;;;;;4978416;28;20283;-78
2021/09/08 03:57:12;;;;;;;18.77;16.97;;;11.10;99.90;;;;;;4979249;28;20201;-79
2021/09/08 03:59:40;;;;;;;21.03;18.70;;;11.00;99.90;;;;;;4975714;28;20261;-78
2021/09/08 04:02:07;;;;;;;20.73;18.73;;;11.00;99.90;;;;;;4975790;28;20203;-77
2021/09/08 04:04:36;;;;;;;22.50;18.53;;;10.90;99.90;;;;;;4973357;28;20216;-78
2021/09/08 04:07:05;;;;;;;20.33;18.40;;;10.90;99.90;;;;;;4971194;28;20281;-75
2021/09/08 04:09:32;;;;;;;20.47;18.53;;;10.90;99.90;;;;;;4971339;28;20202;-76
2021/09/08 04:11:58;;;;;;;19.90;17.97;;;10.90;99.90;;;;;;4972705;28;20194;-76
2021/09/08 04:14:25;;;;;;;20.67;18.70;;;10.90;99.90;;;;;;4972256;28;20209;-76
2021/09/08 04:16:53;;;;;;;22.43;20.07;;;10.90;99.90;;;;;;4971216;28;20232;-74
2021/09/08 04:19:20;;;;;;;20.33;18.23;;;10.90;99.90;;;;;;4972669;28;20227;-78
2021/09/08 04:21:47;;;;;;;20.10;18.10;;;10.90;99.90;;;;;;4974479;28;20314;-76
2021/09/08 04:24:14;;;;;;;21.43;19.17;;;10.80;99.90;;;;;;4971822;28;20262;-75
2021/09/08 04:26:41;;;;;;;21.13;19.00;;;10.80;99.90;;;;;;4972501;28;20236;-76
2021/09/08 04:29:08;;;;;;;20.87;18.77;;;10.80;99.90;;;;;;4972468;28;20217;-76
2021/09/08 04:31:35;;;;;;;20.60;18.50;;;10.80;99.90;;;;;;4972396;28;20206;-76
2021/09/08 04:34:06;;;;;;;21.30;19.03;;;10.80;99.90;;;;;;4972989;28;20214;-76
2021/09/08 04:36:33;;;;;;;21.07;18.87;;;10.70;99.90;;;;;;4973429;28;20229;-76
2021/09/08 04:39:01;;;;;;;23.43;21.13;;;10.70;99.90;;;;;;4972462;28;20194;-76
2021/09/08 04:41:27;;;;;;;23.47;21.17;;;10.70;99.90;;;;;;4973660;28;20206;-76
2021/09/08 04:43:55;;;;;;;23.53;21.27;;;10.70;99.90;;;;;;4969911;28;20322;-75
2021/09/08 04:46:22;;;;;;;23.13;20.93;;;10.80;99.90;;;;;;4972223;28;20198;-76
2021/09/08 04:48:49;;;;;;;22.80;20.70;;;10.80;99.90;;;;;;4973239;28;20226;-78
2021/09/08 04:51:17;;;;;;;23.37;21.00;;;10.80;99.90;;;;;;4978263;28;20245;-78
2021/09/08 04:53:45;;;;;;;21.77;19.73;;;10.80;99.90;;;;;;4976959;28;20577;-79
2021/09/08 04:56:12;;;;;;;22.17;20.07;;;10.80;99.90;;;;;;4977873;28;20202;-76
2021/09/08 04:58:38;;;;;;;23.23;21.00;;;10.70;99.90;;;;;;4978654;28;20218;-77
2021/09/08 05:01:05;;;;;;;23.30;20.93;;;10.80;99.90;;;;;;4977779;28;20644;-78
2021/09/08 05:03:32;;;;;;;23.97;21.67;;;10.80;99.90;;;;;;4978728;28;20289;-77
2021/09/08 05:05:59;;;;;;;24.53;22.23;;;10.90;99.90;;;;;;4977385;28;20289;-77
2021/09/08 05:08:28;;;;;;;23.87;21.63;;;10.90;99.90;;;;;;4977496;28;20282;-79
2021/09/08 05:10:54;;;;;;;22.73;20.53;;;10.90;99.90;;;;;;4979975;28;20198;-80
2021/09/08 05:13:21;;;;;;;23.97;21.67;;;10.90;99.90;;;;;;4980911;28;20222;-80
2021/09/08 05:15:48;;;;;;;24.10;21.60;;;10.90;99.90;;;;;;4976286;28;20202;-82
2021/09/08 05:18:15;;;;;;;22.90;20.80;;;10.90;99.90;;;;;;4982032;28;20239;-78
2021/09/08 05:20:43;;;;;;;24.30;21.90;;;11.00;99.90;;;;;;4979732;28;20206;-85
2021/09/08 05:23:10;;;;;;;24.33;21.97;;;11.00;99.90;;;;;;4975172;28;20308;-78
2021/09/08 05:25:38;;;;;;;24.60;22.20;;;11.00;99.90;;;;;;4976466;28;20194;-81
2021/09/08 05:28:05;;;;;;;22.70;20.50;;;11.10;99.90;;;;;;4975942;28;20694;-76
2021/09/08 05:30:32;;;;;;;24.30;21.83;;;11.20;99.90;;;;;;4974704;28;20202;-76
2021/09/08 05:32:59;;;;;;;24.77;22.30;;;11.20;99.90;;;;;;4975992;28;20194;-76
2021/09/08 05:35:25;;;;;;;23.40;20.97;;;11.20;99.90;;;;;;4975359;28;20201;-76
2021/09/08 05:37:52;;;;;;;22.23;20.13;;;11.30;99.90;;;;;;4976811;28;20246;-76
2021/09/08 05:40:19;;;;;;;21.50;19.40;;;11.50;99.90;;;;;;4976026;28;20206;-76
2021/09/08 05:42:47;;;;;;;24.07;21.57;;;11.60;99.90;;;;;;4976942;28;20195;-76
2021/09/08 05:45:14;;;;;;;22.93;20.70;;;11.80;99.90;;;;;;4977739;28;20194;-77
2021/09/08 05:47:41;;;;;;;22.97;20.73;;;11.90;99.90;;;;;;4976601;28;20198;-76
2021/09/08 05:50:09;;;;;;;21.60;19.63;;;12.00;99.90;;;;;;4977107;28;20202;-77
2021/09/08 05:52:36;;;;;;;22.30;20.07;;;12.20;99.90;;;;;;4975846;28;20199;-76
2021/09/08 05:55:03;;;;;;;20.20;18.20;;;12.20;99.90;;;;;;5000686;23;20237;-78
2021/09/08 05:57:30;;;;;;;22.00;20.03;;;12.30;99.90;;;;;;4982585;28;20212;-78
2021/09/08 05:59:58;;;;;;;16.93;13.60;;;12.50;99.90;;;;;;4983463;28;20600;-78
2021/09/08 06:02:25;;;;;;;17.87;13.70;;;12.60;99.90;;;;;;4990924;28;20675;-78
2021/09/08 06:04:52;;;;;;;14.30;12.60;;;12.80;99.90;;;;;;4966700;28;20273;-79
2021/09/08 06:07:19;;;;;;;17.30;13.53;;;12.90;99.90;;;;;;4951204;28;20200;-79
2021/09/08 06:09:45;;;;;;;19.83;17.93;;;13.10;99.90;;;;;;4955971;28;20279;-79
2021/09/08 06:12:12;;;;;;;16.70;14.97;;;13.20;99.90;;;;;;4958399;28;20208;-79
2021/09/08 06:14:42;;;;;;;19.27;17.53;;;13.20;99.90;;;;;;4966623;28;20228;-78
2021/09/08 06:17:10;;;;;;;18.97;17.27;;;13.30;99.90;;;;;;4965444;28;20207;-77
2021/09/08 06:19:37;;;;;;;14.77;13.27;;;13.40;99.90;;;;;;4968389;28;20204;-77
2021/09/08 06:22:04;;;;;;;19.47;17.67;;;13.40;99.90;;;;;;4968324;28;20247;-77
2021/09/08 06:24:31;;;;;;;19.83;18.13;;;13.40;99.90;;;;;;4966146;28;20711;-77
2021/09/08 06:26:59;;;;;;;19.20;17.50;;;13.50;99.90;;;;;;4967114;28;20279;-77
2021/09/08 06:29:26;;;;;;;19.57;17.87;;;13.50;99.90;;;;;;4967062;28;20236;-79
2021/09/08 06:31:53;;;;;;;19.87;18.17;;;13.60;99.90;;;;;;4957421;28;20213;-76
2021/09/08 06:34:21;;;;;;;18.60;16.90;;;13.60;99.90;;;;;;4955124;28;20287;-76
2021/09/08 06:36:49;;;;;;;19.70;17.93;;;13.60;99.90;;;;;;4963291;28;20236;-76
2021/09/08 06:39:16;;;;;;;18.87;17.27;;;13.70;99.90;;;;;;4955961;28;20213;-78
2021/09/08 06:41:43;;;;;;;20.10;18.10;;;13.80;99.90;;;;;;4956524;28;20217;-76
2021/09/08 06:44:10;;;;;;;19.50;17.70;;;13.90;99.90;;;;;;4959090;28;20269;-77
2021/09/08 06:46:37;;;;;;;18.03;16.40;;;14.00;99.90;;;;;;4966893;28;20203;-77
2021/09/08 06:49:03;;;;;;;18.23;16.63;;;14.10;99.90;;;;;;4964736;28;20220;-78
2021/09/08 06:51:31;;;;;;;16.60;15.10;;;14.20;99.90;;;;;;4954365;28;20210;-77
2021/09/08 06:53:58;;;;;;;16.77;15.37;;;14.30;99.90;;;;;;4951483;28;20234;-76
2021/09/08 06:56:25;;;;;;;17.80;16.07;;;14.40;99.90;;;;;;4956048;28;20656;-76
2021/09/08 06:58:52;;;;;;;16.73;15.13;;;14.50;99.90;;;;;;4967113;28;20201;-78
2021/09/08 07:01:19;;;;;;;18.20;16.53;;;14.60;99.90;;;;;;4964789;28;20533;-78
2021/09/08 07:03:45;;;;;;;17.70;16.17;;;14.60;99.90;;;;;;4969645;28;20218;-77
2021/09/08 07:06:12;;;;;;;17.47;15.87;;;14.70;99.90;;;;;;4963995;28;20202;-77
2021/09/08 07:08:40;;;;;;;16.00;14.50;;;14.80;99.90;;;;;;4964506;28;20222;-76
2021/09/08 07:11:07;;;;;;;15.37;14.07;;;15.00;99.90;;;;;;4962619;28;20229;-77
2021/09/08 07:13:34;;;;;;;16.10;14.60;;;15.20;99.90;;;;;;4965491;28;20281;-77
2021/09/08 07:16:01;;;;;;;17.57;15.97;;;15.50;99.90;;;;;;4962303;28;20260;-77
2021/09/08 07:18:27;;;;;;;17.97;16.33;;;15.80;99.90;;;;;;4958882;28;20259;-77
2021/09/08 07:20:54;;;;;;;17.37;15.87;;;16.20;99.90;;;;;;4961945;28;20230;-77
2021/09/08 07:23:21;;;;;;;18.17;16.57;;;16.50;99.90;;;;;;4962582;28;20195;-77
2021/09/08 07:25:49;;;;;;;17.47;15.77;;;16.80;99.90;;;;;;4968629;28;20236;-82
2021/09/08 07:28:16;;;;;;;17.17;15.57;;;17.00;99.90;;;;;;4956800;28;20209;-82
2021/09/08 07:30:45;;;;;;;20.27;18.27;;;17.40;99.90;;;;;;4947231;28;20567;-79
2021/09/08 07:33:11;;;;;;;20.13;18.23;;;17.90;99.90;;;;;;4962192;28;20216;-81
2021/09/08 07:35:38;;;;;;;18.90;17.20;;;18.40;99.90;;;;;;4965996;28;20214;-81
2021/09/08 07:38:05;;;;;;;19.90;18.20;;;18.90;99.90;;;;;;4949916;28;20202;-81
2021/09/08 07:40:33;;;;;;;18.73;17.07;;;19.30;99.90;;;;;;4952413;28;20210;-80
2021/09/08 07:43:01;;;;;;;17.67;16.00;;;19.80;99.90;;;;;;4960015;28;20207;-79
2021/09/08 07:45:28;;;;;;;18.50;16.10;;;20.20;99.90;;;;;;4943208;28;20589;-80
2021/09/08 07:47:54;;;;;;;65.80;19.67;;;20.60;99.90;;;;;;4957504;28;20218;-77
2021/09/08 07:50:21;;;;;;;19.47;16.63;;;21.00;99.90;;;;;;4963537;28;20277;-82
2021/09/08 07:52:48;;;;;;;14.70;11.73;;;21.20;99.90;;;;;;4966201;28;20202;-82
2021/09/08 07:55:15;;;;;;;17.03;15.47;;;21.40;99.90;;;;;;4964099;28;20744;-78
2021/09/08 07:57:42;;;;;;;17.00;15.50;;;21.50;99.90;;;;;;4968043;28;20274;-81
2021/09/08 08:00:12;;;;;;;11.47;10.20;;;21.70;99.90;;;;;;4982595;28;20201;-81
2021/09/08 08:02:46;;;;;;;13.67;12.10;;;21.90;99.90;;;;;;4964280;28;20197;-81
2021/09/08 08:05:15;;;;;;;16.40;14.90;;;22.10;99.90;;;;;;4975577;28;20213;-79
2021/09/08 08:07:42;;;;;;;17.10;15.70;;;22.30;99.90;;;;;;4976795;28;20220;-79
2021/09/08 08:10:10;;;;;;;16.20;14.87;;;22.40;99.90;;;;;;4957472;28;20281;-79
2021/09/08 08:12:37;;;;;;;16.50;15.13;;;22.50;99.90;;;;;;4967717;28;20210;-79
2021/09/08 08:15:05;;;;;;;15.53;14.13;;;22.60;99.90;;;;;;4966812;28;20286;-78
2021/09/08 08:17:34;;;;;;;12.20;10.23;;;22.80;99.90;;;;;;4969608;28;20212;-78
2021/09/08 08:20:01;;;;;;;12.23;10.60;;;22.90;99.90;;;;;;4969449;28;20202;-79
2021/09/08 08:22:28;;;;;;;13.07;11.77;;;22.90;99.90;;;;;;4968888;28;20253;-78
2021/09/08 08:24:55;;;;;;;11.70;10.33;;;23.10;99.90;;;;;;4970729;28;20273;-82
2021/09/08 08:27:22;;;;;;;11.20;9.00;;;23.30;99.90;;;;;;4970208;28;20207;-78
2021/09/08 08:29:49;;;;;;;15.70;14.20;;;23.20;99.90;;;;;;4962937;28;20225;-80
2021/09/08 08:32:16;;;;;;;15.70;14.37;;;23.20;99.90;;;;;;4961650;28;20257;-81
2021/09/08 08:34:44;;;;;;;17.80;16.10;;;23.40;99.90;;;;;;4956800;28;20660;-79
2021/09/08 08:37:11;;;;;;;12.67;9.30;;;23.40;99.90;;;;;;4959342;28;20727;-80
2021/09/08 08:39:38;;;;;;;12.23;11.13;;;23.40;99.90;;;;;;4954922;28;20202;-77
2021/09/08 08:42:06;;;;;;;13.80;12.60;;;23.60;99.90;;;;;;4965539;28;20226;-78
2021/09/08 08:44:33;;;;;;;12.90;10.73;;;23.80;99.90;;;;;;4975685;28;20249;-78
2021/09/08 08:47:01;;;;;;;11.13;9.53;;;23.50;99.90;;;;;;4968379;28;20209;-77
2021/09/08 08:49:28;;;;;;;11.50;9.97;;;23.20;99.90;;;;;;4974878;28;20225;-78
2021/09/08 08:51:57;;;;;;;10.53;8.87;;;23.20;99.90;;;;;;4973731;28;20206;-78
2021/09/08 08:54:24;;;;;;;12.40;10.30;;;23.50;99.90;;;;;;4972764;28;20277;-78
2021/09/08 08:56:52;;;;;;;10.30;8.37;;;23.60;99.90;;;;;;4965143;28;20210;-78
2021/09/08 08:59:19;;;;;;;9.87;7.97;;;23.50;99.90;;;;;;4972579;28;20195;-78
2021/09/08 09:01:46;;;;;;;14.27;12.87;;;23.70;99.90;;;;;;4976300;28;20299;-78
2021/09/08 09:04:14;;;;;;;13.97;12.83;;;23.90;99.90;;;;;;4971028;28;20223;-78
2021/09/08 09:06:43;;;;;;;10.00;7.67;;;24.00;99.90;;;;;;4977600;28;20249;-78
2021/09/08 09:09:13;;;;;;;9.17;7.87;;;24.30;99.90;;;;;;4969880;28;20685;-78
2021/09/08 09:11:41;;;;;;;9.23;7.70;;;24.60;99.90;;;;;;4973613;28;20258;-78
2021/09/08 09:14:10;;;;;;;10.43;9.43;;;24.70;99.90;;;;;;4971908;28;20478;-78
2021/09/08 09:16:39;;;;;;;10.33;8.23;;;24.60;99.90;;;;;;4974716;28;20206;-78
2021/09/08 09:19:07;;;;;;;8.20;7.30;;;24.60;99.90;;;;;;4974062;28;20226;-78
2021/09/08 09:21:34;;;;;;;9.30;8.00;;;24.70;99.90;;;;;;4971464;28;20206;-78
2021/09/08 09:24:03;;;;;;;10.10;8.00;;;24.40;99.90;;;;;;4975802;28;20222;-79
2021/09/08 09:26:33;;;;;;;13.70;12.60;;;24.20;99.90;;;;;;4975900;28;20202;-78
2021/09/08 09:29:07;;;;;;;14.33;13.13;;;24.40;99.90;;;;;;4973471;28;20210;-77
2021/09/08 09:31:35;;;;;;;7.60;6.80;;;24.80;99.90;;;;;;4973566;28;20285;-77
2021/09/08 09:34:02;;;;;;;12.03;10.73;;;25.00;99.90;;;;;;4969833;28;20592;-77
2021/09/08 09:36:30;;;;;;;13.20;12.10;;;25.10;99.90;;;;;;4971216;28;20202;-78
2021/09/08 09:38:58;;;;;;;11.00;8.77;;;25.20;99.90;;;;;;4969684;28;20685;-77
2021/09/08 09:41:35;;;;;;;14.87;13.60;;;24.90;99.90;;;;;;4967613;28;20201;-78
2021/09/08 09:44:09;;;;;;;13.67;12.53;;;24.60;99.90;;;;;;4976035;28;20221;-78
2021/09/08 09:46:40;;;;;;;14.80;13.60;;;24.10;99.90;;;;;;4978065;28;20549;-78
2021/09/08 09:49:07;;;;;;;14.60;13.50;;;24.50;99.90;;;;;;4964439;28;20335;-79
2021/09/08 09:51:34;;;;;;;15.67;14.33;;;24.60;99.90;;;;;;4970930;28;20194;-79
2021/09/08 09:54:00;;;;;;;15.90;14.60;;;24.70;99.90;;;;;;4967116;28;20247;-78
2021/09/08 09:56:27;;;;;;;14.80;13.60;;;24.80;99.90;;;;;;4972006;28;20229;-79
2021/09/08 09:58:56;;;;;;;14.33;13.03;;;24.90;99.90;;;;;;4969692;28;20271;-78
2021/09/08 10:01:23;;;;;;;15.40;14.00;;;24.80;99.90;;;;;;4967050;28;20207;-79
2021/09/08 10:03:50;;;;;;;14.10;13.00;;;24.70;99.90;;;;;;4970120;28;20223;-78
2021/09/08 10:06:20;;;;;;;15.07;13.63;;;24.70;99.90;;;;;;4969318;28;20233;-78
2021/09/08 10:08:49;;;;;;;13.70;12.60;;;24.60;99.90;;;;;;4971450;28;20226;-78
2021/09/08 10:11:19;;;;;;;14.20;12.90;;;24.70;99.90;;;;;;4968963;28;20299;-78
2021/09/08 10:13:52;;;;;;;14.37;13.07;;;24.80;99.90;;;;;;4971443;28;20273;-79
2021/09/08 10:16:21;;;;;;;13.50;12.20;;;24.70;99.90;;;;;;4974437;28;20190;-78
2021/09/08 10:18:49;;;;;;;13.43;12.43;;;24.90;99.90;;;;;;4967011;28;20228;-79
2021/09/08 10:21:20;;;;;;;14.13;13.00;;;24.60;99.90;;;;;;4967543;28;20285;-78
2021/09/08 10:23:55;;;;;;;14.00;12.80;;;24.50;99.90;;;;;;4970228;28;20284;-78
2021/09/08 10:26:28;;;;;;;12.50;11.50;;;24.30;99.90;;;;;;4968202;28;20667;-79
2021/09/08 10:28:57;;;;;;;13.67;12.43;;;24.30;99.90;;;;;;4968521;28;20205;-78
2021/09/08 10:31:26;;;;;;;13.20;12.13;;;24.20;99.90;;;;;;4968584;28;20228;-78
2021/09/08 10:33:56;;;;;;;13.83;12.47;;;24.10;99.90;;;;;;4958428;28;20229;-78
2021/09/08 10:36:24;;;;;;;14.20;13.00;;;24.10;99.90;;;;;;4971937;28;20736;-78
2021/09/08 10:39:04;;;;;;;13.53;12.33;;;24.10;99.90;;;;;;4960648;28;20276;-79
2021/09/08 10:41:38;;;;;;;13.50;12.30;;;24.00;99.90;;;;;;4966700;28;20206;-78
2021/09/08 10:44:05;;;;;;;14.47;13.17;;;23.80;99.90;;;;;;4969534;28;20221;-79
2021/09/08 10:46:58;;;;;;;13.60;12.40;;;23.70;99.90;;;;;;4970287;28;20198;-78
2021/09/08 10:49:47;;;;;;;14.00;12.80;;;23.70;99.90;;;;;;4970266;28;20285;-78
2021/09/08 10:52:16;;;;;;;13.83;12.63;;;23.70;99.90;;;;;;4966599;28;20594;-78
2021/09/08 10:55:15;;;;;;;13.97;12.77;;;23.70;99.90;;;;;;4964501;28;20268;-78
2021/09/08 10:57:56;;;;;;;13.77;12.60;;;23.90;99.90;;;;;;4965855;28;20211;-78
2021/09/08 11:00:27;;;;;;;13.63;12.43;;;24.00;99.90;;;;;;4973678;28;20198;-78
2021/09/08 11:02:56;;;;;;;13.00;11.90;;;24.00;99.90;;;;;;4960052;28;20220;-78
2021/09/08 11:05:23;;;;;;;13.90;12.63;;;24.10;99.90;;;;;;4967926;28;20762;-78
2021/09/08 11:07:51;;;;;;;13.53;12.33;;;24.10;99.90;;;;;;4970805;28;20206;-78
2021/09/08 11:10:26;;;;;;;14.70;13.30;;;24.00;99.90;;;;;;4967277;28;20218;-78
2021/09/08 11:12:55;;;;;;;13.57;12.37;;;24.00;99.90;;;;;;4967234;28;20207;-78
2021/09/08 11:15:31;;;;;;;14.07;12.87;;;24.00;99.90;;;;;;4969143;28;20230;-78
2021/09/08 11:17:59;;;;;;;13.97;12.63;;;23.90;99.90;;;;;;4965746;28;20209;-78
2021/09/08 11:20:26;;;;;;;14.50;13.10;;;24.00;99.90;;;;;;4971021;28;20198;-78
2021/09/08 11:23:00;;;;;;;13.80;12.60;;;23.90;99.90;;;;;;4968095;28;20209;-78
2021/09/08 11:25:30;;;;;;;13.60;12.50;;;23.80;99.90;;;;;;4969746;28;20225;-78
2021/09/08 11:27:58;;;;;;;12.73;11.63;;;23.90;99.90;;;;;;4970444;28;20261;-78
2021/09/08 11:30:30;;;;;;;13.73;12.40;;;23.90;99.90;;;;;;4968520;28;20227;-78
2021/09/08 11:33:00;;;;;;;12.80;11.53;;;24.00;99.90;;;;;;4969591;28;20523;-78
2021/09/08 11:35:39;;;;;;;13.80;12.60;;;24.00;99.90;;;;;;4968859;28;20233;-78
2021/09/08 11:38:10;;;;;;;13.90;12.50;;;24.10;99.90;;;;;;4966533;28;20205;-78
2021/09/08 11:40:40;;;;;;;13.97;12.87;;;24.10;99.90;;;;;;4977502;28;20203;-78
2021/09/08 11:43:08;;;;;;;12.97;11.87;;;24.20;99.90;;;;;;4972591;28;20210;-79
2021/09/08 11:45:35;;;;;;;13.20;12.00;;;24.20;99.90;;;;;;4973925;28;20225;-79
2021/09/08 11:48:04;;;;;;;13.03;12.00;;;24.20;99.90;;;;;;4971585;28;20210;-79
2021/09/08 11:50:31;;;;;;;13.50;12.40;;;24.30;99.90;;;;;;4970334;28;20222;-78
2021/09/08 11:52:59;;;;;;;13.83;12.67;;;24.30;99.90;;;;;;4969599;28;20210;-78
2021/09/08 11:55:29;;;;;;;13.83;12.63;;;24.40;99.90;;;;;;4996920;23;20249;-76
2021/09/08 11:58:15;;;;;;;13.27;12.27;;;24.40;99.90;;;;;;4969707;28;20655;-76
2021/09/08 12:00:54;;;;;;;13.27;12.00;;;24.40;99.90;;;;;;4965312;28;20204;-78
2021/09/08 12:03:22;;;;;;;12.67;11.67;;;24.30;99.90;;;;;;4973510;28;20201;-78
2021/09/08 12:05:49;;;;;;;14.30;13.00;;;24.40;99.90;;;;;;4965928;28;20238;-82
2021/09/08 12:08:19;;;;;;;14.17;12.97;;;24.40;99.90;;;;;;4973561;28;20557;-78
2021/09/08 12:10:46;;;;;;;13.73;12.43;;;24.40;99.90;;;;;;4974014;28;20226;-77
2021/09/08 12:13:26;;;;;;;13.00;11.90;;;24.40;99.90;;;;;;4974929;28;20228;-79
2021/09/08 12:15:53;;;;;;;12.63;11.63;;;24.40;99.90;;;;;;4978373;28;20241;-78
2021/09/08 12:18:21;;;;;;;13.40;12.23;;;24.50;99.90;;;;;;4979560;28;20206;-78
2021/09/08 12:20:48;;;;;;;13.23;12.10;;;24.60;99.90;;;;;;4979086;28;20201;-78
2021/09/08 12:23:26;;;;;;;13.30;11.93;;;24.60;99.90;;;;;;4978656;28;20205;-78
2021/09/08 12:26:07;;;;;;;12.40;11.40;;;24.60;99.90;;;;;;4965059;28;20217;-78
2021/09/08 12:28:35;;;;;;;12.67;11.67;;;24.70;99.90;;;;;;4977521;28;20206;-78
2021/09/08 12:31:16;;;;;;;12.73;11.47;;;24.80;99.90;;;;;;4977995;28;20643;-77
2021/09/08 12:33:56;;;;;;;13.00;11.90;;;24.80;99.90;;;;;;4978583;28;20225;-78